Tatsuhiro Maru No.8 — JL6336 — position and weather

sailwx.info

Track history (hours):
 
Tides and Currents Weather Stations Pressure Air Temp Water Temp Dewpoint Dewpoint Depression Visibility Wind Speed Wind Dir Waves Ship Positions

Tatsuhiro Maru No.8

Last reported at 2018-Apr-21 03:42 UTC. Time now 2018-Apr-21 08:00 UTC.
Position N 34°00' E 132°45'.

Length 71 m; draft 3.8 m.

Type: Tanker. MMSI: 431500394.

Date/timePositionNaut miles runAvg speedWind from/ knotsBaromVisibWave heightAir tempDewpointWater temp
2018-Apr-21 03:42N 34°00' E 132°45'313.1
2018-Apr-21 03:30N 33°58' E 132°43'713.3
2018-Apr-21 02:59N 33°54' E 132°37'712.7
2018-Apr-21 02:25N 33°52' E 132°29'512.5
2018-Apr-21 02:00N 33°50' E 132°23'912.6
2018-Apr-21 01:16N 33°49' E 132°12'412.3
2018-Apr-21 00:59N 33°48' E 132°08'1211.3
2018-Apr-20 23:55N 33°46' E 131°54'712.0
2018-Apr-20 23:22N 33°47' E 131°46'411.9
2018-Apr-20 23:00N 33°48' E 131°40'611.6
2018-Apr-20 22:29N 33°49' E 131°33'611.9
2018-Apr-20 22:00N 33°50' E 131°27'712.0
2018-Apr-20 21:27N 33°51' E 131°19'512.3
2018-Apr-20 21:00N 33°52' E 131°12'612.6
2018-Apr-20 20:30N 33°56' E 131°06'612.0
2018-Apr-20 20:00N 33°59' E 130°60'4 7.9
2018-Apr-20 19:30N 33°56' E 130°56'3 5.8
2018-Apr-20 19:00N 33°56' E 130°53'510.4
2018-Apr-20 18:30N 33°58' E 130°47'612.4
2018-Apr-20 18:00N 33°57' E 130°40'612.2
2018-Apr-20 17:30N 33°56' E 130°32'612.5
2018-Apr-20 17:00N 33°52' E 130°26'612.6
2018-Apr-20 16:30N 33°48' E 130°21'612.4
2018-Apr-20 16:00N 33°44' E 130°15'612.4
2018-Apr-20 15:30N 33°40' E 130°10'711.9
2018-Apr-20 14:57N 33°37' E 130°03'512.0
2018-Apr-20 14:30N 33°35' E 129°57'611.5
2018-Apr-20 14:00N 33°34' E 129°50'611.7
2018-Apr-20 13:28N 33°30' E 129°44'1211.9
2018-Apr-20 12:29N 33°25' E 129°31'1012.3
2018-Apr-20 11:38N 33°17' E 129°23'32 1.0
2018-Apr-19 04:22N 33°34' E 129°55'410.1
2018-Apr-19 04:00N 33°36' E 129°59'510.2
2018-Apr-19 03:30N 33°37' E 130°04'5 9.8
2018-Apr-19 02:59N 33°40' E 130°10'5 9.9
2018-Apr-19 02:29N 33°43' E 130°14'510.2
2018-Apr-19 02:00N 33°46' E 130°19'510.4
2018-Apr-19 01:30N 33°50' E 130°23'510.5
2018-Apr-19 01:00N 33°54' E 130°28'510.4
2018-Apr-19 00:30N 33°57' E 130°33'510.6
2018-Apr-19 00:00N 33°58' E 130°39'510.8
2018-Apr-18 23:30N 33°58' E 130°46'510.4
2018-Apr-18 23:00N 33°57' E 130°52'4 7.8
2018-Apr-18 22:30N 33°55' E 130°55'4 8.4
2018-Apr-18 22:00N 33°58' E 130°58'3 6.5
2018-Apr-18 21:30N 33°58' E 131°02'510.9
2018-Apr-18 21:00N 33°55' E 131°08'611.2
2018-Apr-18 20:30N 33°52' E 131°13'610.9
2018-Apr-18 20:00N 33°51' E 131°20'511.1
2018-Apr-18 19:30N 33°50' E 131°27'610.8
2018-Apr-18 18:59N 33°49' E 131°33'510.7
2018-Apr-18 18:30N 33°48' E 131°39'510.4
2018-Apr-18 17:59N 33°47' E 131°46'510.6
2018-Apr-18 17:30N 33°46' E 131°52'610.5
2018-Apr-18 16:59N 33°45' E 131°58'511.0
2018-Apr-18 16:30N 33°46' E 132°04'2610.7
2018-Apr-18 14:07N 33°54' E 132°34'210.0
2018-Apr-18 13:57N 33°54' E 132°36'4 9.0
2018-Apr-18 13:29N 33°56' E 132°40'4 7.8
2018-Apr-18 13:00N 33°59' E 132°43'3 0.1
2018-Apr-17 09:09N 34°01' E 132°46'211.9
2018-Apr-17 09:00N 33°60' E 132°45'610.8
2018-Apr-17 08:27N 33°55' E 132°40'511.1
2018-Apr-17 08:00N 33°53' E 132°34'911.0
2018-Apr-17 07:13N 33°50' E 132°25'311.0
2018-Apr-17 06:58N 33°50' E 132°21'611.0
2018-Apr-17 06:23N 33°50' E 132°14'410.7
2018-Apr-17 05:59N 33°48' E 132°09'510.6
2018-Apr-17 05:30N 33°46' E 132°03'611.4
2018-Apr-17 05:00N 33°49' E 131°58'612.4
2018-Apr-17 04:30N 33°53' E 131°52'612.7
2018-Apr-17 04:01N 33°57' E 131°46'510.8
2018-Apr-17 03:30N 34°02' E 131°44'1 2.0
2018-Apr-17 03:00N 34°03' E 131°45'0 0.0
2018-Apr-17 02:30N 34°03' E 131°45'0 0.0
2018-Apr-16 23:45N 34°03' E 131°45'0 0.8
2018-Apr-16 23:30N 34°03' E 131°45'3 6.4
2018-Apr-16 23:00N 34°02' E 131°42'1 1.2
2018-Apr-16 22:28N 34°01' E 131°41'0 0.0
2018-Apr-16 21:43N 34°01' E 131°41'0 0.0
2018-Apr-16 21:28N 34°01' E 131°41'0 0.0
2018-Apr-16 20:58N 34°01' E 131°41'0 0.0
2018-Apr-16 20:22N 34°01' E 131°41'0 0.0
2018-Apr-16 19:58N 34°01' E 131°41'0 0.0
2018-Apr-16 16:58N 34°01' E 131°41'0 0.0
2018-Apr-16 15:58N 34°01' E 131°41'0 0.0
2018-Apr-16 15:10N 34°01' E 131°41'0 0.0
2018-Apr-16 14:58N 34°01' E 131°41'0 0.1
2018-Apr-16 14:28N 34°01' E 131°41'0 0.0
2018-Apr-16 13:58N 34°01' E 131°41'0 0.0
2018-Apr-16 13:28N 34°01' E 131°41'0 0.0
2018-Apr-16 12:58N 34°01' E 131°41'0 0.0
2018-Apr-16 12:28N 34°01' E 131°41'0 0.0
2018-Apr-16 11:58N 34°01' E 131°41'0 0.0
2018-Apr-16 11:25N 34°01' E 131°41'0 0.0
2018-Apr-16 10:58N 34°01' E 131°41'0 0.0
2018-Apr-16 10:28N 34°01' E 131°41'0 0.0
2018-Apr-16 09:34N 34°01' E 131°41'0 0.1
2018-Apr-16 09:25N 34°01' E 131°41'3 7.5
2018-Apr-16 09:01N 33°59' E 131°42'611.8
2018-Apr-16 08:31N 33°55' E 131°48'611.6
2018-Apr-16 08:00N 33°51' E 131°54'711.7
2018-Apr-16 07:24N 33°47' E 132°00'11 8.6
2018-Apr-16 06:07N 33°56' E 132°09'211.3
2018-Apr-16 05:58N 33°57' E 132°10'511.7
2018-Apr-16 05:30N 34°01' E 132°14'611.8
2018-Apr-16 05:00N 34°07' E 132°17'510.4
2018-Apr-16 04:30N 34°12' E 132°15'1 1.3
2018-Apr-16 03:59N 34°12' E 132°15'0 0.0
2018-Apr-16 03:29N 34°12' E 132°15'0 0.0
2018-Apr-16 02:59N 34°12' E 132°15'0 0.0
2018-Apr-16 00:52N 34°12' E 132°15'0 0.9
2018-Apr-16 00:31N 34°12' E 132°15'2 4.4
2018-Apr-16 00:01N 34°11' E 132°17'0 0.0
2018-Apr-15 23:25N 34°11' E 132°17'0 0.1
2018-Apr-15 22:55N 34°11' E 132°17'0 0.0
2018-Apr-15 22:28N 34°11' E 132°17'0 0.0
2018-Apr-15 21:58N 34°11' E 132°17'0 0.0
2018-Apr-15 21:28N 34°11' E 132°17'0 0.0
2018-Apr-15 20:52N 34°11' E 132°17'0 0.0
2018-Apr-15 20:28N 34°11' E 132°17'0 0.0
2018-Apr-15 19:58N 34°11' E 132°17'0 0.0
2018-Apr-15 19:28N 34°11' E 132°17'0 0.0
2018-Apr-15 18:58N 34°11' E 132°17'0 0.0
2018-Apr-15 18:28N 34°11' E 132°17'0 0.0
2018-Apr-15 17:58N 34°11' E 132°17'0 0.0
2018-Apr-15 17:28N 34°11' E 132°17'0 0.0
2018-Apr-15 16:55N 34°11' E 132°17'0 0.0
2018-Apr-15 16:28N 34°11' E 132°17'0 0.0
2018-Apr-15 15:58N 34°11' E 132°17'0 0.0
2018-Apr-15 15:28N 34°11' E 132°17'0 0.0
2018-Apr-15 14:58N 34°11' E 132°17'0 0.0
2018-Apr-15 14:28N 34°11' E 132°17'0 0.0
2018-Apr-15 13:58N 34°11' E 132°17'0 0.0
2018-Apr-15 13:28N 34°11' E 132°17'0 0.0
2018-Apr-15 12:58N 34°11' E 132°17'0 0.0
2018-Apr-15 12:28N 34°11' E 132°17'0 0.0
2018-Apr-15 11:58N 34°11' E 132°17'0 0.0
2018-Apr-15 11:31N 34°11' E 132°17'4 7.2
2018-Apr-15 11:00N 34°07' E 132°18'611.7
2018-Apr-15 10:27N 34°01' E 132°15'612.2
2018-Apr-15 09:56N 33°57' E 132°09'512.1
2018-Apr-15 09:30N 33°52' E 132°10'712.0
2018-Apr-15 08:55N 33°46' E 132°05'612.1
2018-Apr-15 08:26N 33°45' E 131°58'512.0
2018-Apr-15 07:59N 33°46' E 131°51'611.9
2018-Apr-15 07:29N 33°47' E 131°44'611.9
2018-Apr-15 06:59N 33°48' E 131°37'612.4
2018-Apr-15 06:30N 33°49' E 131°30'612.6
2018-Apr-15 06:00N 33°50' E 131°23'612.7
2018-Apr-15 05:30N 33°52' E 131°15'612.8
2018-Apr-15 05:00N 33°54' E 131°08'713.3
2018-Apr-15 04:30N 33°58' E 131°02'612.0
2018-Apr-15 04:00N 33°55' E 130°56'3 6.2
2018-Apr-15 03:30N 33°55' E 130°52'0 0.0
2018-Apr-15 02:58N 33°55' E 130°52'0 0.0
2018-Apr-15 02:28N 33°55' E 130°52'0 0.0
2018-Apr-15 01:58N 33°55' E 130°52'0 0.0
2018-Apr-15 01:28N 33°55' E 130°52'0 0.0
2018-Apr-15 00:58N 33°55' E 130°52'1 1.1
2018-Apr-15 00:30N 33°55' E 130°53'510.1
2018-Apr-15 00:00N 33°58' E 130°58'510.1
2018-Apr-14 23:30N 33°57' E 131°04'611.2
2018-Apr-14 23:01N 33°54' E 131°09'611.1
2018-Apr-14 22:30N 33°52' E 131°15'611.4
2018-Apr-14 22:00N 33°51' E 131°22'611.5
2018-Apr-14 21:30N 33°50' E 131°29'611.6
2018-Apr-14 21:00N 33°49' E 131°36'611.3
2018-Apr-14 20:29N 33°47' E 131°43'510.8
2018-Apr-14 20:00N 33°47' E 131°49'811.0
2018-Apr-14 19:15N 33°45' E 131°59'310.9
2018-Apr-14 18:59N 33°45' E 132°02'511.2
2018-Apr-14 18:31N 33°48' E 132°08'610.9
2018-Apr-14 17:59N 33°50' E 132°14'610.9
2018-Apr-14 17:24N 33°50' E 132°22'1011.7
2018-Apr-14 16:32N 33°53' E 132°33'111.9
2018-Apr-14 16:26N 33°54' E 132°35'512.0
2018-Apr-14 16:00N 33°56' E 132°40'10 0.3
2018-Apr-13 10:22N 34°06' E 132°42'512.6
2018-Apr-13 10:00N 34°04' E 132°37'1010.1
2018-Apr-13 09:02N 34°06' E 132°25'111.7
2018-Apr-13 08:58N 34°07' E 132°25'511.4
2018-Apr-13 08:30N 34°11' E 132°22'510.9
2018-Apr-13 08:00N 34°17' E 132°24'510.4
2018-Apr-13 07:30N 34°17' E 132°30'3 5.5
2018-Apr-13 07:00N 34°15' E 132°32'0 0.0
2018-Apr-13 06:30N 34°15' E 132°32'0 0.0
2018-Apr-13 05:59N 34°15' E 132°32'0 0.0
2018-Apr-13 05:29N 34°15' E 132°32'0 0.0
2018-Apr-13 04:59N 34°15' E 132°32'0 0.0
2018-Apr-13 04:29N 34°15' E 132°32'0 0.0
2018-Apr-13 03:56N 34°15' E 132°32'0 0.0
2018-Apr-13 03:26N 34°15' E 132°32'0 0.0
2018-Apr-13 02:41N 34°15' E 132°32'0 0.0
2018-Apr-13 02:23N 34°15' E 132°32'0 0.0
2018-Apr-13 01:59N 34°15' E 132°32'0 0.0
2018-Apr-13 01:29N 34°15' E 132°32'0 0.0
2018-Apr-13 00:56N 34°15' E 132°32'0 0.0
2018-Apr-13 00:29N 34°15' E 132°32'0 0.0
2018-Apr-12 23:59N 34°15' E 132°32'0 0.0
2018-Apr-12 23:23N 34°15' E 132°32'0 0.0
2018-Apr-12 22:59N 34°15' E 132°32'0 0.0
2018-Apr-12 22:29N 34°15' E 132°32'0 0.0
2018-Apr-12 21:59N 34°15' E 132°32'0 0.0
2018-Apr-12 21:26N 34°15' E 132°32'0 0.0
2018-Apr-12 20:56N 34°15' E 132°32'0 0.0
2018-Apr-12 20:29N 34°15' E 132°32'0 0.0
2018-Apr-12 19:59N 34°15' E 132°32'0 0.0
2018-Apr-12 19:26N 34°15' E 132°32'0 0.0
2018-Apr-12 18:59N 34°15' E 132°32'0 0.0
2018-Apr-12 18:29N 34°15' E 132°32'0 0.0
2018-Apr-12 17:59N 34°15' E 132°32'0 0.0
2018-Apr-12 17:26N 34°15' E 132°32'0 0.0
2018-Apr-12 16:59N 34°15' E 132°32'0 0.0
2018-Apr-12 16:29N 34°15' E 132°32'0 0.0
2018-Apr-12 15:56N 34°15' E 132°32'0 0.0
2018-Apr-12 15:29N 34°15' E 132°32'0 0.0
2018-Apr-12 14:59N 34°15' E 132°32'0 0.0
2018-Apr-12 14:29N 34°15' E 132°32'0 0.0
2018-Apr-12 13:59N 34°15' E 132°32'0 0.0
2018-Apr-12 13:29N 34°15' E 132°32'0 0.0
2018-Apr-12 12:59N 34°15' E 132°32'0 0.0
2018-Apr-12 12:29N 34°15' E 132°32'0 0.0
2018-Apr-12 11:59N 34°15' E 132°32'0 0.0
2018-Apr-12 11:26N 34°15' E 132°32'0 0.0
2018-Apr-12 10:59N 34°15' E 132°32'0 0.0
2018-Apr-12 10:29N 34°15' E 132°32'0 0.0
2018-Apr-12 09:59N 34°15' E 132°32'0 0.0
2018-Apr-12 09:26N 34°15' E 132°32'0 0.0
2018-Apr-12 08:59N 34°15' E 132°32'0 0.0
2018-Apr-12 08:29N 34°15' E 132°32'0 0.0
2018-Apr-12 07:59N 34°15' E 132°32'0 0.0
2018-Apr-12 07:29N 34°15' E 132°32'0 0.0
2018-Apr-12 06:59N 34°15' E 132°32'0 0.0
2018-Apr-12 06:26N 34°15' E 132°32'0 0.0
2018-Apr-12 05:59N 34°15' E 132°32'0 0.0
2018-Apr-12 05:29N 34°15' E 132°32'0 0.0
2018-Apr-12 04:59N 34°15' E 132°32'0 0.0
2018-Apr-12 04:29N 34°15' E 132°32'0 0.0
2018-Apr-12 03:59N 34°15' E 132°32'0 0.0
2018-Apr-12 03:29N 34°15' E 132°32'0 0.0
2018-Apr-12 02:56N 34°15' E 132°32'0 0.0
2018-Apr-12 02:29N 34°15' E 132°32'0 0.0
2018-Apr-12 01:58N 34°15' E 132°32'0 0.0
2018-Apr-12 01:28N 34°15' E 132°32'0 0.0
2018-Apr-12 00:58N 34°15' E 132°32'0 0.0
2018-Apr-12 00:28N 34°15' E 132°32'0 0.0
2018-Apr-11 23:55N 34°15' E 132°32'0 0.0
2018-Apr-11 23:25N 34°15' E 132°32'0 0.0
2018-Apr-11 22:58N 34°15' E 132°32'0 0.0
2018-Apr-11 22:28N 34°15' E 132°32'0 0.0
2018-Apr-11 21:55N 34°15' E 132°32'0 0.0
2018-Apr-11 21:28N 34°15' E 132°32'0 0.0
2018-Apr-11 20:58N 34°15' E 132°32'0 0.0
2018-Apr-11 20:28N 34°15' E 132°32'0 0.0
2018-Apr-11 19:58N 34°15' E 132°32'0 0.0
2018-Apr-11 19:28N 34°15' E 132°32'0 0.0
2018-Apr-11 18:58N 34°15' E 132°32'0 0.0
2018-Apr-11 18:28N 34°15' E 132°32'0 0.0
2018-Apr-11 17:52N 34°15' E 132°32'0 0.0
2018-Apr-11 17:28N 34°15' E 132°32'0 0.0
2018-Apr-11 16:58N 34°15' E 132°32'0 0.0
2018-Apr-11 16:25N 34°15' E 132°32'0 0.0
2018-Apr-11 15:58N 34°15' E 132°32'0 0.0
2018-Apr-11 15:28N 34°15' E 132°32'0 0.0
2018-Apr-11 14:58N 34°15' E 132°32'0 0.0
2018-Apr-11 14:28N 34°15' E 132°32'0 0.0
2018-Apr-11 13:58N 34°15' E 132°32'0 0.0
2018-Apr-11 13:28N 34°15' E 132°32'0 0.0
2018-Apr-11 12:58N 34°15' E 132°32'0 0.0
2018-Apr-11 12:25N 34°15' E 132°32'0 0.0
2018-Apr-11 11:55N 34°15' E 132°32'0 0.0
2018-Apr-11 11:25N 34°15' E 132°32'0 0.0
2018-Apr-11 10:58N 34°15' E 132°32'0 0.0
2018-Apr-11 10:28N 34°15' E 132°32'0 0.0
2018-Apr-11 09:55N 34°15' E 132°32'0 0.0
2018-Apr-11 09:19N 34°15' E 132°32'0 0.0
2018-Apr-11 08:58N 34°15' E 132°32'0 0.0
2018-Apr-11 08:28N 34°15' E 132°32'0 0.0
2018-Apr-11 07:55N 34°15' E 132°32'0 0.0
2018-Apr-11 07:25N 34°15' E 132°32'0 0.0
2018-Apr-11 06:58N 34°15' E 132°32'0 0.0
2018-Apr-11 06:28N 34°15' E 132°32'0 0.0
2018-Apr-11 05:58N 34°15' E 132°32'0 0.0
2018-Apr-11 05:19N 34°15' E 132°32'0 0.0
2018-Apr-11 04:58N 34°15' E 132°32'0 0.0
2018-Apr-11 04:28N 34°15' E 132°32'0 0.0
2018-Apr-11 03:58N 34°15' E 132°32'  
Track history (hours):
 
Tides and Currents Weather Stations Pressure Air Temp Water Temp Dewpoint Dewpoint Depression Visibility Wind Speed Wind Dir Waves Ship Positions

Tatsuhiro Maru No.8

Last reported at 2018-Apr-21 03:42 UTC. Time now 2018-Apr-21 08:00 UTC.
Position N 34°00' E 132°45'.

Length 71 m; draft 3.8 m.

Type: Tanker. MMSI: 431500394.

Date/timePositionNaut miles runAvg speedWind from/ knotsBaromVisibWave heightAir tempDewpointWater temp
2018-Apr-21 03:42N 34°00' E 132°45'313.1
2018-Apr-21 03:30N 33°58' E 132°43'713.3
2018-Apr-21 02:59N 33°54' E 132°37'712.7
2018-Apr-21 02:25N 33°52' E 132°29'512.5
2018-Apr-21 02:00N 33°50' E 132°23'912.6
2018-Apr-21 01:16N 33°49' E 132°12'412.3
2018-Apr-21 00:59N 33°48' E 132°08'1211.3
2018-Apr-20 23:55N 33°46' E 131°54'712.0
2018-Apr-20 23:22N 33°47' E 131°46'411.9
2018-Apr-20 23:00N 33°48' E 131°40'611.6
2018-Apr-20 22:29N 33°49' E 131°33'611.9
2018-Apr-20 22:00N 33°50' E 131°27'712.0
2018-Apr-20 21:27N 33°51' E 131°19'512.3
2018-Apr-20 21:00N 33°52' E 131°12'612.6
2018-Apr-20 20:30N 33°56' E 131°06'612.0
2018-Apr-20 20:00N 33°59' E 130°60'4 7.9
2018-Apr-20 19:30N 33°56' E 130°56'3 5.8
2018-Apr-20 19:00N 33°56' E 130°53'510.4
2018-Apr-20 18:30N 33°58' E 130°47'612.4
2018-Apr-20 18:00N 33°57' E 130°40'612.2
2018-Apr-20 17:30N 33°56' E 130°32'612.5
2018-Apr-20 17:00N 33°52' E 130°26'612.6
2018-Apr-20 16:30N 33°48' E 130°21'612.4
2018-Apr-20 16:00N 33°44' E 130°15'612.4
2018-Apr-20 15:30N 33°40' E 130°10'711.9
2018-Apr-20 14:57N 33°37' E 130°03'512.0
2018-Apr-20 14:30N 33°35' E 129°57'611.5
2018-Apr-20 14:00N 33°34' E 129°50'611.7
2018-Apr-20 13:28N 33°30' E 129°44'1211.9
2018-Apr-20 12:29N 33°25' E 129°31'1012.3
2018-Apr-20 11:38N 33°17' E 129°23'32 1.0
2018-Apr-19 04:22N 33°34' E 129°55'410.1
2018-Apr-19 04:00N 33°36' E 129°59'510.2
2018-Apr-19 03:30N 33°37' E 130°04'5 9.8
2018-Apr-19 02:59N 33°40' E 130°10'5 9.9
2018-Apr-19 02:29N 33°43' E 130°14'510.2
2018-Apr-19 02:00N 33°46' E 130°19'510.4
2018-Apr-19 01:30N 33°50' E 130°23'510.5
2018-Apr-19 01:00N 33°54' E 130°28'510.4
2018-Apr-19 00:30N 33°57' E 130°33'510.6
2018-Apr-19 00:00N 33°58' E 130°39'510.8
2018-Apr-18 23:30N 33°58' E 130°46'510.4
2018-Apr-18 23:00N 33°57' E 130°52'4 7.8
2018-Apr-18 22:30N 33°55' E 130°55'4 8.4
2018-Apr-18 22:00N 33°58' E 130°58'3 6.5
2018-Apr-18 21:30N 33°58' E 131°02'510.9
2018-Apr-18 21:00N 33°55' E 131°08'611.2
2018-Apr-18 20:30N 33°52' E 131°13'610.9
2018-Apr-18 20:00N 33°51' E 131°20'511.1
2018-Apr-18 19:30N 33°50' E 131°27'610.8
2018-Apr-18 18:59N 33°49' E 131°33'510.7
2018-Apr-18 18:30N 33°48' E 131°39'510.4
2018-Apr-18 17:59N 33°47' E 131°46'510.6
2018-Apr-18 17:30N 33°46' E 131°52'610.5
2018-Apr-18 16:59N 33°45' E 131°58'511.0
2018-Apr-18 16:30N 33°46' E 132°04'2610.7
2018-Apr-18 14:07N 33°54' E 132°34'210.0
2018-Apr-18 13:57N 33°54' E 132°36'4 9.0
2018-Apr-18 13:29N 33°56' E 132°40'4 7.8
2018-Apr-18 13:00N 33°59' E 132°43'3 0.1
2018-Apr-17 09:09N 34°01' E 132°46'211.9
2018-Apr-17 09:00N 33°60' E 132°45'610.8
2018-Apr-17 08:27N 33°55' E 132°40'511.1
2018-Apr-17 08:00N 33°53' E 132°34'911.0
2018-Apr-17 07:13N 33°50' E 132°25'311.0
2018-Apr-17 06:58N 33°50' E 132°21'611.0
2018-Apr-17 06:23N 33°50' E 132°14'410.7
2018-Apr-17 05:59N 33°48' E 132°09'510.6
2018-Apr-17 05:30N 33°46' E 132°03'611.4
2018-Apr-17 05:00N 33°49' E 131°58'612.4
2018-Apr-17 04:30N 33°53' E 131°52'612.7
2018-Apr-17 04:01N 33°57' E 131°46'510.8
2018-Apr-17 03:30N 34°02' E 131°44'1 2.0
2018-Apr-17 03:00N 34°03' E 131°45'0 0.0
2018-Apr-17 02:30N 34°03' E 131°45'0 0.0
2018-Apr-16 23:45N 34°03' E 131°45'0 0.8
2018-Apr-16 23:30N 34°03' E 131°45'3 6.4
2018-Apr-16 23:00N 34°02' E 131°42'1 1.2
2018-Apr-16 22:28N 34°01' E 131°41'0 0.0
2018-Apr-16 21:43N 34°01' E 131°41'0 0.0
2018-Apr-16 21:28N 34°01' E 131°41'0 0.0
2018-Apr-16 20:58N 34°01' E 131°41'0 0.0
2018-Apr-16 20:22N 34°01' E 131°41'0 0.0
2018-Apr-16 19:58N 34°01' E 131°41'0 0.0
2018-Apr-16 16:58N 34°01' E 131°41'0 0.0
2018-Apr-16 15:58N 34°01' E 131°41'0 0.0
2018-Apr-16 15:10N 34°01' E 131°41'0 0.0
2018-Apr-16 14:58N 34°01' E 131°41'0 0.1
2018-Apr-16 14:28N 34°01' E 131°41'0 0.0
2018-Apr-16 13:58N 34°01' E 131°41'0 0.0
2018-Apr-16 13:28N 34°01' E 131°41'0 0.0
2018-Apr-16 12:58N 34°01' E 131°41'0 0.0
2018-Apr-16 12:28N 34°01' E 131°41'0 0.0
2018-Apr-16 11:58N 34°01' E 131°41'0 0.0
2018-Apr-16 11:25N 34°01' E 131°41'0 0.0
2018-Apr-16 10:58N 34°01' E 131°41'0 0.0
2018-Apr-16 10:28N 34°01' E 131°41'0 0.0
2018-Apr-16 09:34N 34°01' E 131°41'0 0.1
2018-Apr-16 09:25N 34°01' E 131°41'3 7.5
2018-Apr-16 09:01N 33°59' E 131°42'611.8
2018-Apr-16 08:31N 33°55' E 131°48'611.6
2018-Apr-16 08:00N 33°51' E 131°54'711.7
2018-Apr-16 07:24N 33°47' E 132°00'11 8.6
2018-Apr-16 06:07N 33°56' E 132°09'211.3
2018-Apr-16 05:58N 33°57' E 132°10'511.7
2018-Apr-16 05:30N 34°01' E 132°14'611.8
2018-Apr-16 05:00N 34°07' E 132°17'510.4
2018-Apr-16 04:30N 34°12' E 132°15'1 1.3
2018-Apr-16 03:59N 34°12' E 132°15'0 0.0
2018-Apr-16 03:29N 34°12' E 132°15'0 0.0
2018-Apr-16 02:59N 34°12' E 132°15'0 0.0
2018-Apr-16 00:52N 34°12' E 132°15'0 0.9
2018-Apr-16 00:31N 34°12' E 132°15'2 4.4
2018-Apr-16 00:01N 34°11' E 132°17'0 0.0
2018-Apr-15 23:25N 34°11' E 132°17'0 0.1
2018-Apr-15 22:55N 34°11' E 132°17'0 0.0
2018-Apr-15 22:28N 34°11' E 132°17'0 0.0
2018-Apr-15 21:58N 34°11' E 132°17'0 0.0
2018-Apr-15 21:28N 34°11' E 132°17'0 0.0
2018-Apr-15 20:52N 34°11' E 132°17'0 0.0
2018-Apr-15 20:28N 34°11' E 132°17'0 0.0
2018-Apr-15 19:58N 34°11' E 132°17'0 0.0
2018-Apr-15 19:28N 34°11' E 132°17'0 0.0
2018-Apr-15 18:58N 34°11' E 132°17'0 0.0
2018-Apr-15 18:28N 34°11' E 132°17'0 0.0
2018-Apr-15 17:58N 34°11' E 132°17'0 0.0
2018-Apr-15 17:28N 34°11' E 132°17'0 0.0
2018-Apr-15 16:55N 34°11' E 132°17'0 0.0
2018-Apr-15 16:28N 34°11' E 132°17'0 0.0
2018-Apr-15 15:58N 34°11' E 132°17'0 0.0
2018-Apr-15 15:28N 34°11' E 132°17'0 0.0
2018-Apr-15 14:58N 34°11' E 132°17'0 0.0
2018-Apr-15 14:28N 34°11' E 132°17'0 0.0
2018-Apr-15 13:58N 34°11' E 132°17'0 0.0
2018-Apr-15 13:28N 34°11' E 132°17'0 0.0
2018-Apr-15 12:58N 34°11' E 132°17'0 0.0
2018-Apr-15 12:28N 34°11' E 132°17'0 0.0
2018-Apr-15 11:58N 34°11' E 132°17'0 0.0
2018-Apr-15 11:31N 34°11' E 132°17'4 7.2
2018-Apr-15 11:00N 34°07' E 132°18'611.7
2018-Apr-15 10:27N 34°01' E 132°15'612.2
2018-Apr-15 09:56N 33°57' E 132°09'512.1
2018-Apr-15 09:30N 33°52' E 132°10'712.0
2018-Apr-15 08:55N 33°46' E 132°05'612.1
2018-Apr-15 08:26N 33°45' E 131°58'512.0
2018-Apr-15 07:59N 33°46' E 131°51'611.9
2018-Apr-15 07:29N 33°47' E 131°44'611.9
2018-Apr-15 06:59N 33°48' E 131°37'612.4
2018-Apr-15 06:30N 33°49' E 131°30'612.6
2018-Apr-15 06:00N 33°50' E 131°23'612.7
2018-Apr-15 05:30N 33°52' E 131°15'612.8
2018-Apr-15 05:00N 33°54' E 131°08'713.3
2018-Apr-15 04:30N 33°58' E 131°02'612.0
2018-Apr-15 04:00N 33°55' E 130°56'3 6.2
2018-Apr-15 03:30N 33°55' E 130°52'0 0.0
2018-Apr-15 02:58N 33°55' E 130°52'0 0.0
2018-Apr-15 02:28N 33°55' E 130°52'0 0.0
2018-Apr-15 01:58N 33°55' E 130°52'0 0.0
2018-Apr-15 01:28N 33°55' E 130°52'0 0.0
2018-Apr-15 00:58N 33°55' E 130°52'1 1.1
2018-Apr-15 00:30N 33°55' E 130°53'510.1
2018-Apr-15 00:00N 33°58' E 130°58'510.1
2018-Apr-14 23:30N 33°57' E 131°04'611.2
2018-Apr-14 23:01N 33°54' E 131°09'611.1
2018-Apr-14 22:30N 33°52' E 131°15'611.4
2018-Apr-14 22:00N 33°51' E 131°22'611.5
2018-Apr-14 21:30N 33°50' E 131°29'611.6
2018-Apr-14 21:00N 33°49' E 131°36'611.3
2018-Apr-14 20:29N 33°47' E 131°43'510.8
2018-Apr-14 20:00N 33°47' E 131°49'811.0
2018-Apr-14 19:15N 33°45' E 131°59'310.9
2018-Apr-14 18:59N 33°45' E 132°02'511.2
2018-Apr-14 18:31N 33°48' E 132°08'610.9
2018-Apr-14 17:59N 33°50' E 132°14'610.9
2018-Apr-14 17:24N 33°50' E 132°22'1011.7
2018-Apr-14 16:32N 33°53' E 132°33'111.9
2018-Apr-14 16:26N 33°54' E 132°35'512.0
2018-Apr-14 16:00N 33°56' E 132°40'10 0.3
2018-Apr-13 10:22N 34°06' E 132°42'512.6
2018-Apr-13 10:00N 34°04' E 132°37'1010.1
2018-Apr-13 09:02N 34°06' E 132°25'111.7
2018-Apr-13 08:58N 34°07' E 132°25'511.4
2018-Apr-13 08:30N 34°11' E 132°22'510.9
2018-Apr-13 08:00N 34°17' E 132°24'510.4
2018-Apr-13 07:30N 34°17' E 132°30'3 5.5
2018-Apr-13 07:00N 34°15' E 132°32'0 0.0
2018-Apr-13 06:30N 34°15' E 132°32'0 0.0
2018-Apr-13 05:59N 34°15' E 132°32'0 0.0
2018-Apr-13 05:29N 34°15' E 132°32'0 0.0
2018-Apr-13 04:59N 34°15' E 132°32'0 0.0
2018-Apr-13 04:29N 34°15' E 132°32'0 0.0
2018-Apr-13 03:56N 34°15' E 132°32'0 0.0
2018-Apr-13 03:26N 34°15' E 132°32'0 0.0
2018-Apr-13 02:41N 34°15' E 132°32'0 0.0
2018-Apr-13 02:23N 34°15' E 132°32'0 0.0
2018-Apr-13 01:59N 34°15' E 132°32'0 0.0
2018-Apr-13 01:29N 34°15' E 132°32'0 0.0
2018-Apr-13 00:56N 34°15' E 132°32'0 0.0
2018-Apr-13 00:29N 34°15' E 132°32'0 0.0
2018-Apr-12 23:59N 34°15' E 132°32'0 0.0
2018-Apr-12 23:23N 34°15' E 132°32'0 0.0
2018-Apr-12 22:59N 34°15' E 132°32'0 0.0
2018-Apr-12 22:29N 34°15' E 132°32'0 0.0
2018-Apr-12 21:59N 34°15' E 132°32'0 0.0
2018-Apr-12 21:26N 34°15' E 132°32'0 0.0
2018-Apr-12 20:56N 34°15' E 132°32'0 0.0
2018-Apr-12 20:29N 34°15' E 132°32'0 0.0
2018-Apr-12 19:59N 34°15' E 132°32'0 0.0
2018-Apr-12 19:26N 34°15' E 132°32'0 0.0
2018-Apr-12 18:59N 34°15' E 132°32'0 0.0
2018-Apr-12 18:29N 34°15' E 132°32'0 0.0
2018-Apr-12 17:59N 34°15' E 132°32'0 0.0
2018-Apr-12 17:26N 34°15' E 132°32'0 0.0
2018-Apr-12 16:59N 34°15' E 132°32'0 0.0
2018-Apr-12 16:29N 34°15' E 132°32'0 0.0
2018-Apr-12 15:56N 34°15' E 132°32'0 0.0
2018-Apr-12 15:29N 34°15' E 132°32'0 0.0
2018-Apr-12 14:59N 34°15' E 132°32'0 0.0
2018-Apr-12 14:29N 34°15' E 132°32'0 0.0
2018-Apr-12 13:59N 34°15' E 132°32'0 0.0
2018-Apr-12 13:29N 34°15' E 132°32'0 0.0
2018-Apr-12 12:59N 34°15' E 132°32'0 0.0
2018-Apr-12 12:29N 34°15' E 132°32'0 0.0
2018-Apr-12 11:59N 34°15' E 132°32'0 0.0
2018-Apr-12 11:26N 34°15' E 132°32'0 0.0
2018-Apr-12 10:59N 34°15' E 132°32'0 0.0
2018-Apr-12 10:29N 34°15' E 132°32'0 0.0
2018-Apr-12 09:59N 34°15' E 132°32'0 0.0
2018-Apr-12 09:26N 34°15' E 132°32'0 0.0
2018-Apr-12 08:59N 34°15' E 132°32'0 0.0
2018-Apr-12 08:29N 34°15' E 132°32'0 0.0
2018-Apr-12 07:59N 34°15' E 132°32'0 0.0
2018-Apr-12 07:29N 34°15' E 132°32'0 0.0
2018-Apr-12 06:59N 34°15' E 132°32'0 0.0
2018-Apr-12 06:26N 34°15' E 132°32'0 0.0
2018-Apr-12 05:59N 34°15' E 132°32'0 0.0
2018-Apr-12 05:29N 34°15' E 132°32'0 0.0
2018-Apr-12 04:59N 34°15' E 132°32'0 0.0
2018-Apr-12 04:29N 34°15' E 132°32'0 0.0
2018-Apr-12 03:59N 34°15' E 132°32'0 0.0
2018-Apr-12 03:29N 34°15' E 132°32'0 0.0
2018-Apr-12 02:56N 34°15' E 132°32'0 0.0
2018-Apr-12 02:29N 34°15' E 132°32'0 0.0
2018-Apr-12 01:58N 34°15' E 132°32'0 0.0
2018-Apr-12 01:28N 34°15' E 132°32'0 0.0
2018-Apr-12 00:58N 34°15' E 132°32'0 0.0
2018-Apr-12 00:28N 34°15' E 132°32'0 0.0
2018-Apr-11 23:55N 34°15' E 132°32'0 0.0
2018-Apr-11 23:25N 34°15' E 132°32'0 0.0
2018-Apr-11 22:58N 34°15' E 132°32'0 0.0
2018-Apr-11 22:28N 34°15' E 132°32'0 0.0
2018-Apr-11 21:55N 34°15' E 132°32'0 0.0
2018-Apr-11 21:28N 34°15' E 132°32'0 0.0
2018-Apr-11 20:58N 34°15' E 132°32'0 0.0
2018-Apr-11 20:28N 34°15' E 132°32'0 0.0
2018-Apr-11 19:58N 34°15' E 132°32'0 0.0
2018-Apr-11 19:28N 34°15' E 132°32'0 0.0
2018-Apr-11 18:58N 34°15' E 132°32'0 0.0
2018-Apr-11 18:28N 34°15' E 132°32'0 0.0
2018-Apr-11 17:52N 34°15' E 132°32'0 0.0
2018-Apr-11 17:28N 34°15' E 132°32'0 0.0
2018-Apr-11 16:58N 34°15' E 132°32'0 0.0
2018-Apr-11 16:25N 34°15' E 132°32'0 0.0
2018-Apr-11 15:58N 34°15' E 132°32'0 0.0
2018-Apr-11 15:28N 34°15' E 132°32'0 0.0
2018-Apr-11 14:58N 34°15' E 132°32'0 0.0
2018-Apr-11 14:28N 34°15' E 132°32'0 0.0
2018-Apr-11 13:58N 34°15' E 132°32'0 0.0
2018-Apr-11 13:28N 34°15' E 132°32'0 0.0
2018-Apr-11 12:58N 34°15' E 132°32'0 0.0
2018-Apr-11 12:25N 34°15' E 132°32'0 0.0
2018-Apr-11 11:55N 34°15' E 132°32'0 0.0
2018-Apr-11 11:25N 34°15' E 132°32'0 0.0
2018-Apr-11 10:58N 34°15' E 132°32'0 0.0
2018-Apr-11 10:28N 34°15' E 132°32'0 0.0
2018-Apr-11 09:55N 34°15' E 132°32'0 0.0
2018-Apr-11 09:19N 34°15' E 132°32'0 0.0
2018-Apr-11 08:58N 34°15' E 132°32'0 0.0
2018-Apr-11 08:28N 34°15' E 132°32'0 0.0
2018-Apr-11 07:55N 34°15' E 132°32'0 0.0
2018-Apr-11 07:25N 34°15' E 132°32'0 0.0
2018-Apr-11 06:58N 34°15' E 132°32'0 0.0
2018-Apr-11 06:28N 34°15' E 132°32'0 0.0
2018-Apr-11 05:58N 34°15' E 132°32'0 0.0
2018-Apr-11 05:19N 34°15' E 132°32'0 0.0
2018-Apr-11 04:58N 34°15' E 132°32'0 0.0
2018-Apr-11 04:28N 34°15' E 132°32'0 0.0
2018-Apr-11 03:58N 34°15' E 132°32'  

Dump ship's entire track history